Time;durP1;ratioP1;P1;durP2;ratioP2;P2;SDS_P1;SDS_P2;PMS_P1;PMS_P2;Temp;Humidity;BMP_temperature;BMP_pressure;BME280_temperature;BME280_humidity;BME280_pressure;Samples;Min_cycle;Max_cycle;Signal;HPM_P1;HPM_P2
2022/08/31 00:03:58;;;;;;;7.07;1.73;;;;;;;15.10;100.00;100370.69;4201518;28;20422;-66
2022/08/31 00:06:25;;;;;;;7.73;2.00;;;;;;;15.08;100.00;100367.34;4198754;28;21824;-68
2022/08/31 00:08:52;;;;;;;4.83;1.57;;;;;;;15.06;100.00;100366.69;4208595;28;21739;-66
2022/08/31 00:11:26;;;;;;;3.43;1.40;;;;;;;15.05;100.00;100369.53;4207793;28;25057;-67
2022/08/31 00:13:55;;;;;;;4.90;2.27;;;;;;;15.02;100.00;100373.41;4198304;28;20236;-68
2022/08/31 00:16:24;;;;;;;4.50;1.63;;;;;;;14.99;100.00;100365.72;4209799;28;20320;-67
2022/08/31 00:18:53;;;;;;;3.83;1.60;;;;;;;14.93;100.00;100382.50;4212351;28;21073;-66
2022/08/31 00:21:22;;;;;;;5.67;2.07;;;;;;;14.87;100.00;100370.66;4206988;28;20231;-67
2022/08/31 00:23:49;;;;;;;7.57;1.70;;;;;;;14.89;100.00;100381.16;4213300;28;20262;-66
2022/08/31 00:26:16;;;;;;;4.57;1.80;;;;;;;14.80;100.00;100382.22;4218899;28;20271;-69
2022/08/31 00:28:43;;;;;;;4.60;1.83;;;;;;;14.72;100.00;100380.41;4207674;28;20232;-68
2022/08/31 00:31:11;;;;;;;7.67;1.73;;;;;;;14.74;100.00;100383.75;4212551;28;20231;-66
2022/08/31 00:33:38;;;;;;;6.50;1.80;;;;;;;14.70;100.00;100377.06;4195053;28;20240;-70
2022/08/31 00:36:08;;;;;;;6.90;1.87;;;;;;;14.69;100.00;100384.28;4210015;28;20245;-68
2022/08/31 00:38:35;;;;;;;7.93;2.00;;;;;;;14.68;100.00;100379.94;4210578;28;20240;-67
2022/08/31 00:41:01;;;;;;;6.43;2.20;;;;;;;14.67;100.00;100388.97;4212651;28;21252;-66
2022/08/31 00:43:55;;;;;;;6.30;2.20;;;;;;;14.60;100.00;100385.31;4217521;28;20239;-66
2022/08/31 00:46:29;;;;;;;8.60;2.10;;;;;;;14.67;100.00;100383.59;4214805;28;20233;-67
2022/08/31 00:49:05;;;;;;;6.37;1.90;;;;;;;14.57;100.00;100386.50;4212699;28;20240;-66
2022/08/31 00:51:36;;;;;;;5.23;2.17;;;;;;;14.52;100.00;100391.50;4213877;28;20243;-67
2022/08/31 00:54:04;;;;;;;4.43;1.83;;;;;;;14.51;100.00;100388.97;4218458;28;20322;-66
2022/08/31 00:56:33;;;;;;;6.63;2.07;;;;;;;14.43;100.00;100389.03;4193116;28;21045;-67
2022/08/31 00:58:59;;;;;;;4.60;1.97;;;;;;;14.48;100.00;100394.69;4191772;28;20236;-66
2022/08/31 01:01:26;;;;;;;6.20;1.90;;;;;;;14.42;100.00;100392.69;4211799;28;22306;-66
2022/08/31 01:03:53;;;;;;;9.60;2.23;;;;;;;14.44;100.00;100388.00;4202664;28;20335;-67
2022/08/31 01:06:21;;;;;;;5.37;1.90;;;;;;;14.36;100.00;100381.66;4208013;28;20290;-67
2022/08/31 01:08:48;;;;;;;6.40;2.10;;;;;;;14.35;100.00;100387.16;4207345;28;26063;-65
2022/08/31 01:11:17;;;;;;;10.37;2.30;;;;;;;14.29;100.00;100385.19;4175262;28;20244;-67
2022/08/31 01:13:43;;;;;;;4.07;1.83;;;;;;;14.25;100.00;100381.19;4208062;28;20388;-66
2022/08/31 01:16:15;;;;;;;5.73;2.20;;;;;;;14.19;100.00;100385.38;4211460;28;20235;-67
2022/08/31 01:18:42;;;;;;;5.03;2.03;;;;;;;14.20;100.00;100380.88;4215650;28;20660;-66
2022/08/31 01:21:24;;;;;;;6.13;2.20;;;;;;;14.16;100.00;100375.00;4189465;28;20307;-66
2022/08/31 01:23:53;;;;;;;9.03;2.00;;;;;;;14.14;100.00;100387.72;4208250;28;20228;-65
2022/08/31 01:26:23;;;;;;;4.67;2.30;;;;;;;14.08;100.00;100389.25;4194199;28;20321;-65
2022/08/31 01:28:50;;;;;;;8.00;2.30;;;;;;;13.95;100.00;100388.91;4210396;28;20306;-66
2022/08/31 01:31:29;;;;;;;6.27;2.63;;;;;;;14.05;100.00;100388.75;4205946;28;20251;-67
2022/08/31 01:33:57;;;;;;;4.83;2.10;;;;;;;14.02;100.00;100378.38;4183987;28;20298;-66
2022/08/31 01:36:25;;;;;;;6.80;2.03;;;;;;;13.99;100.00;100384.91;4199496;28;21778;-67
2022/08/31 01:38:51;;;;;;;5.40;2.00;;;;;;;13.99;100.00;100387.56;4201844;28;20235;-66
2022/08/31 01:41:19;;;;;;;3.57;2.00;;;;;;;13.98;100.00;100382.38;4214845;28;21570;-66
2022/08/31 01:43:46;;;;;;;5.83;2.60;;;;;;;14.02;100.00;100381.03;4207803;28;20228;-67
2022/08/31 01:46:13;;;;;;;8.13;2.70;;;;;;;13.98;100.00;100379.69;4213624;28;20253;-66
2022/08/31 01:48:41;;;;;;;5.37;2.40;;;;;;;14.00;100.00;100380.38;4195131;28;20319;-67
2022/08/31 01:51:09;;;;;;;7.13;2.83;;;;;;;13.94;100.00;100374.69;4209502;28;20253;-67
2022/08/31 01:53:38;;;;;;;9.40;2.77;;;;;;;13.83;100.00;100375.03;4211242;28;20252;-67
2022/08/31 01:56:17;;;;;;;6.03;2.70;;;;;;;13.90;100.00;100377.88;4211799;28;20402;-66
2022/08/31 01:58:43;;;;;;;6.90;2.43;;;;;;;13.90;100.00;100365.31;4194018;28;20328;-67
2022/08/31 02:01:10;;;;;;;9.23;2.60;;;;;;;13.99;100.00;100376.03;4213370;28;20240;-66
2022/08/31 02:03:57;;;;;;;7.87;3.27;;;;;;;13.96;100.00;100373.72;4198981;28;20687;-65
2022/08/31 02:06:24;;;;;;;8.03;2.37;;;;;;;13.96;100.00;100376.38;4198856;28;20802;-65
2022/08/31 02:08:50;;;;;;;5.50;2.47;;;;;;;13.93;100.00;100370.38;4207036;28;20243;-65
2022/08/31 02:11:17;;;;;;;8.23;2.70;;;;;;;13.94;100.00;100372.03;4197370;28;22300;-66
2022/08/31 02:13:44;;;;;;;6.63;2.43;;;;;;;13.86;100.00;100373.84;4211599;28;20237;-66
2022/08/31 02:16:11;;;;;;;6.50;2.33;;;;;;;13.88;100.00;100371.84;4213739;28;20262;-66
2022/08/31 02:18:37;;;;;;;5.10;2.27;;;;;;;13.93;100.00;100370.38;4211472;28;20390;-67
2022/08/31 02:21:04;;;;;;;6.77;2.13;;;;;;;13.92;100.00;100366.00;4193450;28;20297;-65
2022/08/31 02:23:31;;;;;;;6.73;2.47;;;;;;;13.92;100.00;100367.84;4209968;28;20231;-66
2022/08/31 02:25:58;;;;;;;6.50;2.30;;;;;;;13.94;100.00;100369.34;4195058;28;22962;-65
2022/08/31 02:28:25;;;;;;;4.43;2.30;;;;;;;13.90;100.00;100365.31;4216279;28;21697;-68
2022/08/31 02:30:51;;;;;;;5.97;2.17;;;;;;;13.93;100.00;100366.84;4212302;28;20370;-67
2022/08/31 02:33:18;;;;;;;7.83;2.50;;;;;;;13.95;100.00;100367.50;4201219;28;22289;-68
2022/08/31 02:35:45;;;;;;;7.97;2.20;;;;;;;13.89;100.00;100366.34;4209789;28;20228;-65
2022/08/31 02:38:17;;;;;;;6.37;2.10;;;;;;;13.93;100.00;100365.00;4200930;28;21074;-66
2022/08/31 02:40:44;;;;;;;4.20;2.27;;;;;;;13.83;100.00;100369.69;4194377;28;21580;-67
2022/08/31 02:43:11;;;;;;;7.33;2.30;;;;;;;13.73;100.00;100372.53;4196360;28;20232;-66
2022/08/31 02:45:50;;;;;;;9.07;1.90;;;;;;;13.77;100.00;100370.38;4207933;28;20247;-67
2022/08/31 02:48:19;;;;;;;3.93;2.00;;;;;;;13.80;100.00;100366.53;4213746;28;20257;-65
2022/08/31 02:50:48;;;;;;;3.60;1.97;;;;;;;13.79;100.00;100365.69;4201336;28;20234;-67
2022/08/31 02:53:17;;;;;;;5.13;2.13;;;;;;;13.75;100.00;100360.84;4208522;28;20220;-67
2022/08/31 02:55:45;;;;;;;8.80;2.03;;;;;;;13.78;100.00;100366.69;4216015;28;20677;-67
2022/08/31 02:58:12;;;;;;;5.83;1.97;;;;;;;13.79;100.00;100368.38;4216123;28;20271;-67
2022/08/31 03:00:43;;;;;;;6.33;2.00;;;;;;;13.80;100.00;100370.03;4200387;28;20221;-66
2022/08/31 03:03:10;;;;;;;4.70;2.03;;;;;;;13.81;100.00;100368.19;4198757;28;20248;-66
2022/08/31 03:05:37;;;;;;;4.13;2.07;;;;;;;13.69;100.00;100371.19;4195796;28;20300;-65
2022/08/31 03:08:03;;;;;;;6.20;1.90;;;;;;;13.79;100.00;100365.69;4212037;28;20257;-67
2022/08/31 03:10:30;;;;;;;6.90;1.97;;;;;;;13.79;100.00;100372.84;4187948;28;20315;-65
2022/08/31 03:12:57;;;;;;;3.80;1.80;;;;;;;13.80;100.00;100363.84;4199366;28;26806;-66
2022/08/31 03:15:25;;;;;;;4.97;1.90;;;;;;;13.81;100.00;100366.34;4204576;28;20502;-66
2022/08/31 03:17:52;;;;;;;4.17;1.80;;;;;;;13.75;100.00;100372.38;4200528;28;20276;-68
2022/08/31 03:20:19;;;;;;;5.20;2.10;;;;;;;13.87;100.00;100376.38;4189571;28;21371;-66
2022/08/31 03:22:46;;;;;;;8.53;1.80;;;;;;;13.86;100.00;100377.41;4188266;28;22230;-65
2022/08/31 03:25:14;;;;;;;8.03;2.00;;;;;;;13.83;100.00;100379.56;4201013;28;20249;-66
2022/08/31 03:27:40;;;;;;;3.00;1.63;;;;;;;13.88;100.00;100383.41;4210915;28;20385;-67
2022/08/31 03:30:10;;;;;;;4.00;1.70;;;;;;;13.82;100.00;100384.06;4203247;28;20419;-66
2022/08/31 03:32:37;;;;;;;5.73;1.80;;;;;;;13.80;100.00;100380.72;4204950;28;22060;-65
2022/08/31 03:35:06;;;;;;;3.77;1.87;;;;;;;13.77;100.00;100378.41;4216955;28;21414;-66
2022/08/31 03:37:33;;;;;;;6.70;1.80;;;;;;;13.80;100.00;100383.41;4204331;28;21130;-66
2022/08/31 03:39:59;;;;;;;8.87;2.10;;;;;;;13.75;100.00;100388.41;4215335;28;20244;-66
2022/08/31 03:42:26;;;;;;;4.43;2.10;;;;;;;13.79;100.00;100391.56;4194355;28;21132;-66
2022/08/31 03:44:57;;;;;;;4.17;2.00;;;;;;;13.83;100.00;100393.75;4206766;28;23422;-66
2022/08/31 03:47:24;;;;;;;9.47;1.90;;;;;;;13.79;100.00;100395.13;4195791;28;27144;-66
2022/08/31 03:49:54;;;;;;;3.33;1.90;;;;;;;13.73;100.00;100393.09;4214037;28;22304;-66
2022/08/31 03:52:21;;;;;;;7.00;2.23;;;;;;;13.83;100.00;100391.06;4214673;28;20244;-66
2022/08/31 03:54:48;;;;;;;8.70;2.30;;;;;;;13.77;100.00;100393.63;4210528;28;20233;-66
2022/08/31 03:57:15;;;;;;;7.83;1.90;;;;;;;13.83;100.00;100393.75;4205838;28;20237;-65
2022/08/31 03:59:41;;;;;;;3.70;1.60;;;;;;;13.80;100.00;100391.41;4190289;28;20382;-66
2022/08/31 04:02:08;;;;;;;4.27;2.03;;;;;;;13.86;100.00;100398.78;4195728;28;22740;-66
2022/08/31 04:04:34;;;;;;;9.77;2.30;;;;;;;13.86;100.00;100396.13;4194509;28;20238;-66
2022/08/31 04:07:01;;;;;;;7.03;1.83;;;;;;;13.91;100.00;100383.06;4219946;28;20258;-67
2022/08/31 04:09:28;;;;;;;6.23;1.83;;;;;;;14.01;100.00;100395.44;4231132;28;20248;-66
2022/08/31 04:11:54;;;;;;;6.57;1.83;;;;;;;14.02;100.00;100394.41;4202442;28;20450;-66
2022/08/31 04:14:22;;;;;;;2.87;1.70;;;;;;;13.95;100.00;100391.56;4221087;28;20251;-68
2022/08/31 04:16:49;;;;;;;6.63;2.00;;;;;;;13.98;100.00;100395.75;4205691;28;20568;-66
2022/08/31 04:19:16;;;;;;;4.40;1.90;;;;;;;13.92;100.00;100395.44;4216714;28;22023;-66
2022/08/31 04:21:43;;;;;;;4.70;1.87;;;;;;;13.94;100.00;100396.09;4218121;28;20249;-66
2022/08/31 04:24:10;;;;;;;4.17;1.73;;;;;;;14.05;100.00;100402.13;4232887;28;21060;-65
2022/08/31 04:26:39;;;;;;;2.57;1.57;;;;;;;14.00;100.00;100408.00;4216687;28;23673;-68
2022/08/31 04:29:07;;;;;;;7.20;2.17;;;;;;;14.06;100.00;100414.50;4218460;28;20253;-67
2022/08/31 04:31:38;;;;;;;3.90;1.77;;;;;;;14.12;100.00;100416.50;4210424;28;20302;-65
2022/08/31 04:34:05;;;;;;;3.87;1.60;;;;;;;14.10;100.00;100415.84;4214984;28;20284;-68
2022/08/31 04:36:32;;;;;;;3.53;1.30;;;;;;;14.06;100.00;100418.00;4219444;28;20315;-66
2022/08/31 04:39:01;;;;;;;5.27;1.83;;;;;;;14.17;100.00;100421.34;4220019;28;20299;-66
2022/08/31 04:41:29;;;;;;;6.87;1.73;;;;;;;14.17;100.00;100416.84;4263212;28;20240;-67
2022/08/31 04:43:59;;;;;;;6.60;1.60;;;;;;;14.22;100.00;100430.53;4272807;28;20309;-66
2022/08/31 04:46:26;;;;;;;5.50;1.90;;;;;;;14.24;100.00;100423.19;4255550;28;20627;-67
2022/08/31 04:48:54;;;;;;;4.80;1.93;;;;;;;14.35;100.00;100430.00;4238589;28;20654;-67
2022/08/31 04:51:23;;;;;;;6.93;1.90;;;;;;;14.29;100.00;100428.84;4256470;28;20235;-66
2022/08/31 04:53:51;;;;;;;6.30;2.37;;;;;;;14.30;100.00;100433.19;4242809;28;21702;-65
2022/08/31 04:56:27;;;;;;;6.87;1.90;;;;;;;14.43;100.00;100435.38;4234157;28;21091;-69
2022/08/31 04:58:59;;;;;;;6.10;1.90;;;;;;;14.50;100.00;100435.53;4215514;28;22978;-70
2022/08/31 05:01:29;;;;;;;6.23;2.43;;;;;;;14.53;100.00;100432.50;4216796;28;21807;-64
2022/08/31 05:04:08;;;;;;;6.13;2.00;;;;;;;14.61;100.00;100432.53;4230512;28;20977;-68
2022/08/31 05:06:39;;;;;;;8.20;2.00;;;;;;;14.67;100.00;100436.34;4233943;28;21494;-66
2022/08/31 05:09:08;;;;;;;7.47;1.80;;;;;;;14.71;100.00;100438.50;4235254;28;25339;-66
2022/08/31 05:11:35;;;;;;;4.90;1.50;;;;;;;14.70;100.00;100439.53;4235029;28;20312;-64
2022/08/31 05:14:04;;;;;;;10.50;2.60;;;;;;;14.80;99.56;100438.47;4234246;28;20840;-67
2022/08/31 05:16:32;;;;;;;4.23;1.77;;;;;;;14.85;98.63;100433.47;4242029;28;20656;-66
2022/08/31 05:18:59;;;;;;;6.50;1.50;;;;;;;14.85;98.75;100431.59;4216293;28;20292;-68
2022/08/31 05:21:29;;;;;;;6.80;1.90;;;;;;;14.93;98.04;100439.59;4223828;28;21464;-67
2022/08/31 05:23:58;;;;;;;8.23;1.73;;;;;;;15.03;97.77;100436.75;4232707;28;20236;-66
2022/08/31 05:26:29;;;;;;;9.60;2.23;;;;;;;15.21;96.85;100444.50;4219546;28;20237;-67
2022/08/31 05:28:57;;;;;;;8.60;2.17;;;;;;;15.34;96.03;100446.63;4223913;28;20564;-64
2022/08/31 05:31:25;;;;;;;13.87;2.27;;;;;;;15.40;94.52;100451.28;4240316;28;21532;-68
2022/08/31 05:33:52;;;;;;;10.43;1.97;;;;;;;15.57;93.64;100455.56;4220654;28;20240;-66
2022/08/31 05:36:18;;;;;;;8.47;2.03;;;;;;;15.67;93.57;100454.50;4217657;28;20245;-66
2022/08/31 05:38:45;;;;;;;5.90;1.47;;;;;;;15.80;92.82;100460.13;4219751;28;20268;-70
2022/08/31 05:41:12;;;;;;;6.20;1.73;;;;;;;15.95;91.21;100468.25;4215325;28;20236;-67
2022/08/31 05:43:39;;;;;;;10.30;1.73;;;;;;;16.10;89.86;100466.44;4209772;28;20232;-67
2022/08/31 05:46:07;;;;;;;6.77;1.83;;;;;;;16.23;89.34;100465.84;4225390;28;20246;-65
2022/08/31 05:48:36;;;;;;;7.50;1.80;;;;;;;16.33;87.15;100469.09;4220472;28;20241;-68
2022/08/31 05:51:05;;;;;;;7.23;2.10;;;;;;;16.36;86.13;100465.19;4198340;28;22335;-65
2022/08/31 05:53:33;;;;;;;9.07;1.90;;;;;;;16.48;85.33;100465.59;4226198;28;20243;-67
2022/08/31 05:56:11;;;;;;;11.23;1.60;;;;;;;16.65;84.95;100472.50;4213998;28;20236;-69
2022/08/31 05:58:39;;;;;;;4.47;1.37;;;;;;;16.86;83.88;100469.94;4214002;28;20797;-68
2022/08/31 06:01:18;;;;;;;5.10;1.30;;;;;;;16.94;81.32;100469.00;4221953;28;20817;-66
2022/08/31 06:03:46;;;;;;;5.20;1.33;;;;;;;17.01;81.23;100477.16;4225718;28;20346;-68
2022/08/31 06:06:13;;;;;;;6.50;1.40;;;;;;;16.96;80.27;100477.72;4229763;28;20232;-70
2022/08/31 06:08:40;;;;;;;7.33;1.40;;;;;;;17.09;80.66;100482.44;4208328;28;20236;-70
2022/08/31 06:11:14;;;;;;;9.67;2.47;;;;;;;17.16;79.63;100487.91;4209936;28;20236;-72
2022/08/31 06:13:41;;;;;;;8.60;1.23;;;;;;;17.33;77.95;100493.94;4213975;28;20390;-69
2022/08/31 06:16:08;;;;;;;7.57;1.83;;;;;;;17.52;78.01;100493.34;4209283;28;20311;-71
2022/08/31 06:18:39;;;;;;;4.13;1.50;;;;;;;17.75;76.95;100503.94;4201932;28;21298;-73
2022/08/31 06:21:08;;;;;;;7.23;1.60;;;;;;;17.90;76.05;100504.75;4204992;28;21819;-71
2022/08/31 06:23:36;;;;;;;7.47;1.60;;;;;;;18.11;74.58;100503.91;4192685;28;20226;-69
2022/08/31 06:26:05;;;;;;;4.80;1.40;;;;;;;18.18;74.02;100508.53;4193980;28;20229;-70
2022/08/31 06:28:32;;;;;;;5.40;1.53;;;;;;;18.02;73.19;100505.06;4208849;28;20236;-75
2022/08/31 06:31:00;;;;;;;4.37;1.33;;;;;;;18.11;72.60;100500.41;4216934;28;20236;-73
2022/08/31 06:33:28;;;;;;;5.33;1.50;;;;;;;18.00;73.26;100507.13;4197201;28;20326;-74
2022/08/31 06:35:55;;;;;;;6.10;1.87;;;;;;;17.93;74.43;100500.84;4198833;28;20252;-71
2022/08/31 06:38:23;;;;;;;9.77;1.70;;;;;;;17.89;73.60;100500.41;4218164;28;22747;-73
2022/08/31 06:40:50;;;;;;;5.60;1.30;;;;;;;17.45;72.85;100493.25;4211441;28;21100;-72
2022/08/31 06:43:17;;;;;;;5.90;1.23;;;;;;;17.33;72.69;100504.69;4213145;28;20699;-71
2022/08/31 06:45:44;;;;;;;3.97;1.00;;;;;;;17.19;73.00;100507.19;4262682;28;20548;-72
2022/08/31 06:48:10;;;;;;;4.57;1.10;;;;;;;17.35;72.49;100500.78;4213941;28;24990;-74
2022/08/31 06:50:40;;;;;;;6.00;1.13;;;;;;;17.42;71.68;100500.84;4223129;28;20254;-71
2022/08/31 06:53:07;;;;;;;6.50;0.90;;;;;;;18.20;70.68;100504.63;4260107;28;20233;-70
2022/08/31 06:55:34;;;;;;;9.10;0.97;;;;;;;21.06;59.65;100516.47;4217288;28;21934;-78
2022/08/31 06:58:01;;;;;;;4.93;1.13;;;;;;;23.76;46.81;100527.59;4237946;28;20970;-73
2022/08/31 07:00:29;;;;;;;6.17;1.07;;;;;;;26.02;40.02;100539.09;4288725;28;20229;-71
2022/08/31 07:03:21;;;;;;;4.03;1.20;;;;;;;27.71;34.69;100550.66;4262683;28;26739;-70
2022/08/31 07:05:46;;;;;;;6.37;0.97;;;;;;;27.46;34.08;100542.97;4347839;28;20308;-71
2022/08/31 07:08:13;;;;;;;5.13;1.10;;;;;;;27.96;32.55;100544.69;4245704;28;20231;-74
2022/08/31 07:10:40;;;;;;;5.47;1.33;;;;;;;29.42;31.01;100560.84;4282513;28;22300;-68
2022/08/31 07:13:07;;;;;;;1.47;0.80;;;;;;;28.25;31.25;100543.59;4341366;28;20236;-70
2022/08/31 07:15:33;;;;;;;7.97;1.10;;;;;;;26.23;35.10;100534.84;4242385;28;20320;-73
2022/08/31 07:18:00;;;;;;;3.77;0.90;;;;;;;24.51;38.88;100520.84;4226181;28;20252;-70
2022/08/31 07:20:27;;;;;;;10.77;1.30;;;;;;;23.65;41.53;100514.75;4197583;28;21892;-70
2022/08/31 07:22:55;;;;;;;4.80;0.87;;;;;;;23.28;42.58;100514.81;4243507;28;20872;-70
2022/08/31 07:25:25;;;;;;;5.53;1.30;;;;;;;25.19;38.34;100525.72;4246758;28;20939;-68
2022/08/31 07:27:54;;;;;;;5.00;1.13;;;;;;;25.36;37.53;100539.44;4230008;28;21898;-70
2022/08/31 07:30:22;;;;;;;3.90;1.07;;;;;;;25.32;38.47;100535.50;4238098;28;20319;-70
2022/08/31 07:32:50;;;;;;;4.47;0.83;;;;;;;26.39;35.58;100539.47;4230521;28;20250;-66
2022/08/31 07:35:22;;;;;;;8.97;0.90;;;;;;;28.10;32.28;100553.31;4214472;28;21404;-70
2022/08/31 07:43:40;;;;;;;6.50;1.13;;;;;;;27.65;30.52;100551.72;4225928;28;21268;-71
2022/08/31 07:46:07;;;;;;;5.43;0.83;;;;;;;29.66;27.58;100561.25;4232469;28;20283;-67
2022/08/31 07:48:34;;;;;;;4.27;0.80;;;;;;;29.93;27.34;100567.66;4210152;28;20290;-65
2022/08/31 07:51:01;;;;;;;2.43;0.63;;;;;;;29.23;28.10;100562.41;4245420;28;21177;-66
2022/08/31 07:53:28;;;;;;;7.72;0.88;;;;;;;32.09;24.78;100568.97;4212633;28;20237;-67
2022/08/31 07:55:57;;;;;;;2.45;0.70;;;;;;;33.57;22.92;100586.06;4196622;28;20467;-68
2022/08/31 07:58:26;;;;;;;3.45;0.70;;;;;;;32.55;21.14;100574.16;4209042;28;20257;-67
2022/08/31 08:00:54;;;;;;;5.00;0.70;;;;;;;31.37;22.45;100566.50;4216406;28;20292;-66
2022/08/31 08:03:20;;;;;;;2.88;1.20;;;;;;;31.28;21.72;100560.78;4211278;28;20344;-69
2022/08/31 08:05:48;;;;;;;2.20;1.08;;;;;;;32.01;22.13;100569.53;4209292;28;20611;-67
2022/08/31 08:08:21;;;;;;;11.60;0.90;;;;;;;31.85;22.14;100568.81;4209789;28;20237;-51
2022/08/31 08:10:48;;;;;;;8.23;4.30;;;;;;;29.61;23.95;100554.91;4240437;28;23202;-48
2022/08/31 08:13:18;;;;;;;4.20;1.20;;;;;;;27.01;28.39;100540.44;4266911;28;20240;-46
2022/08/31 08:15:49;;;;;;;7.47;1.10;;;;;;;25.87;31.51;100535.03;4215549;28;20248;-67
2022/08/31 08:18:17;;;;;;;3.53;0.70;;;;;;;25.47;31.20;100533.13;4250726;28;20250;-66
2022/08/31 08:20:44;;;;;;;2.33;0.70;;;;;;;24.80;32.84;100527.25;4232854;28;21122;-64
2022/08/31 08:23:13;;;;;;;3.77;0.70;;;;;;;24.49;34.03;100522.97;4264584;28;20234;-64
2022/08/31 08:25:45;;;;;;;3.47;0.80;;;;;;;24.40;34.96;100534.19;4220906;28;20233;-64
2022/08/31 08:28:16;;;;;;;3.77;0.80;;;;;;;23.88;34.72;100533.94;4255348;28;20244;-67
2022/08/31 08:31:04;;;;;;;5.43;0.80;;;;;;;23.66;35.68;100530.00;4216667;28;21966;-66
2022/08/31 08:33:33;;;;;;;4.97;1.10;;;;;;;23.76;36.06;100525.72;4228909;28;20272;-65
2022/08/31 08:36:06;;;;;;;3.17;1.00;;;;;;;24.13;35.08;100530.22;4235924;28;25886;-67
2022/08/31 08:38:34;;;;;;;7.27;1.10;;;;;;;23.22;36.18;100523.84;4217625;28;20415;-66
2022/08/31 08:41:05;;;;;;;1.83;0.70;;;;;;;23.17;36.19;100525.34;4232125;28;20342;-68
2022/08/31 08:43:35;;;;;;;4.80;0.70;;;;;;;23.27;35.90;100516.69;4203979;28;21267;-68
2022/08/31 08:46:04;;;;;;;2.07;0.60;;;;;;;23.27;35.35;100519.41;4219764;28;20247;-66
2022/08/31 08:48:51;;;;;;;2.90;0.80;;;;;;;23.47;35.99;100530.03;4224794;28;20644;-66
2022/08/31 08:51:25;;;;;;;3.13;0.70;;;;;;;23.46;33.72;100527.53;4250064;28;20253;-66
2022/08/31 08:53:57;;;;;;;2.33;0.80;;;;;;;22.68;34.67;100527.06;4265158;28;20248;-67
2022/08/31 08:56:25;;;;;;;1.97;0.60;;;;;;;22.68;33.86;100516.22;4225557;28;22297;-68
2022/08/31 08:58:59;;;;;;;4.17;0.80;;;;;;;23.20;33.54;100520.53;4208972;28;20241;-65
2022/08/31 09:01:27;;;;;;;4.87;0.83;;;;;;;23.48;34.81;100526.25;4219536;28;20228;-67
2022/08/31 09:04:08;;;;;;;1.00;0.50;;;;;;;22.90;35.19;100523.97;4201842;28;20226;-66
2022/08/31 09:06:45;;;;;;;4.10;0.50;;;;;;;22.31;35.93;100517.97;4197771;28;20343;-70
2022/08/31 09:09:33;;;;;;;3.50;0.77;;;;;;;22.41;36.21;100526.47;4214758;28;20279;-68
2022/08/31 09:12:37;;;;;;;3.90;0.83;;;;;;;22.41;36.50;100522.94;4199519;28;20351;-66
2022/08/31 09:15:17;;;;;;;1.17;0.70;;;;;;;22.52;37.01;100524.91;4225399;28;21166;-66
2022/08/31 09:18:05;;;;;;;1.73;0.60;;;;;;;22.42;36.11;100527.31;4217736;28;22166;-66
2022/08/31 09:20:32;;;;;;;2.93;0.83;;;;;;;22.25;36.32;100522.41;4213628;28;20266;-70
2022/08/31 09:22:59;;;;;;;3.20;1.10;;;;;;;21.92;37.25;100517.19;4187631;28;20225;-66
2022/08/31 09:25:32;;;;;;;4.67;1.00;;;;;;;21.69;37.76;100520.44;4214095;28;20274;-68
2022/08/31 09:28:01;;;;;;;3.50;0.80;;;;;;;21.38;38.02;100524.72;4219691;28;20374;-69
2022/08/31 09:30:43;;;;;;;2.67;0.60;;;;;;;20.84;39.29;100517.78;4207961;28;20236;-67
2022/08/31 09:33:18;;;;;;;3.83;0.70;;;;;;;20.61;39.03;100512.81;4212434;28;20237;-65
2022/08/31 09:35:46;;;;;;;6.17;0.80;;;;;;;20.60;40.40;100514.69;4213564;28;25207;-66
2022/08/31 09:38:28;;;;;;;5.77;0.87;;;;;;;20.61;39.83;100510.94;4228176;28;20243;-65
2022/08/31 09:40:57;;;;;;;4.13;0.93;;;;;;;20.93;38.52;100502.13;4228451;28;20263;-68
2022/08/31 09:43:37;;;;;;;2.60;0.77;;;;;;;21.34;38.38;100506.41;4208852;28;21941;-68
2022/08/31 09:46:27;;;;;;;2.20;0.50;;;;;;;21.58;36.97;100499.44;4228090;28;20294;-68
2022/08/31 09:48:59;;;;;;;3.77;0.50;;;;;;;21.37;37.04;100509.50;4212140;28;20751;-69
2022/08/31 09:51:31;;;;;;;0.93;0.50;;;;;;;21.16;36.21;100507.09;4217685;28;20365;-68
2022/08/31 09:56:57;;;;;;;5.10;0.83;;;;;;;20.92;37.01;100509.44;4224049;28;20343;-66
2022/08/31 09:59:38;;;;;;;3.20;0.60;;;;;;;20.96;36.41;100504.44;4219555;28;20227;-68
2022/08/31 10:02:12;;;;;;;3.30;0.77;;;;;;;20.78;37.45;100497.81;4222602;28;23363;-66
2022/08/31 10:05:05;;;;;;;3.70;0.87;;;;;;;21.05;37.52;100500.47;4204173;28;20243;-67
2022/08/31 10:07:44;;;;;;;2.90;0.90;;;;;;;21.12;37.76;100505.84;4220959;28;20347;-67
2022/08/31 10:10:16;;;;;;;5.30;0.60;;;;;;;20.99;35.33;100494.00;4199370;28;20530;-66
2022/08/31 10:13:39;;;;;;;2.77;0.50;;;;;;;21.28;35.27;100499.97;4230021;28;20236;-67
2022/08/31 10:16:15;;;;;;;2.70;1.10;;;;;;;21.14;36.84;100488.38;4171113;28;22106;-67
2022/08/31 10:19:03;;;;;;;1.03;0.50;;;;;;;21.47;35.49;100493.69;4214406;28;21642;-67
2022/08/31 10:21:55;;;;;;;2.50;0.47;;;;;;;21.43;35.85;100495.16;4188885;28;23560;-67
2022/08/31 10:24:37;;;;;;;4.93;0.97;;;;;;;21.56;35.73;100498.84;4216008;28;21115;-66
2022/08/31 10:27:11;;;;;;;2.00;0.60;;;;;;;21.61;34.71;100493.59;4220012;28;22420;-69
2022/08/31 10:29:48;;;;;;;0.97;0.50;;;;;;;21.71;33.76;100483.97;4213233;28;20441;-65
2022/08/31 10:32:39;;;;;;;3.90;0.93;;;;;;;21.77;34.14;100487.66;4191218;28;21319;-68
2022/08/31 10:35:36;;;;;;;1.70;0.47;;;;;;;21.85;34.62;100492.03;4205588;28;20233;-69
2022/08/31 10:38:25;;;;;;;1.53;0.57;;;;;;;21.74;34.81;100484.59;4224810;28;20240;-67
2022/08/31 10:41:11;;;;;;;2.10;1.00;;;;;;;21.44;33.42;100494.09;4217110;28;22096;-66
2022/08/31 10:43:47;;;;;;;1.70;0.70;;;;;;;21.33;32.94;100492.06;4236962;28;20521;-68
2022/08/31 10:46:14;;;;;;;2.97;0.80;;;;;;;21.25;33.04;100489.56;4216217;28;20311;-66
2022/08/31 10:48:46;;;;;;;4.03;0.60;;;;;;;21.38;33.01;100486.81;4222858;28;21699;-68
2022/08/31 10:51:21;;;;;;;2.77;0.90;;;;;;;21.58;33.38;100478.63;4200958;28;20437;-67
2022/08/31 10:54:06;;;;;;;1.77;0.60;;;;;;;21.61;32.41;100480.91;4215416;28;20305;-67
2022/08/31 10:56:58;;;;;;;1.73;0.60;;;;;;;21.57;32.41;100481.56;4200288;28;21762;-68
2022/08/31 10:59:31;;;;;;;3.17;0.50;;;;;;;21.55;32.76;100475.53;4214712;28;21810;-66
2022/08/31 11:02:36;;;;;;;2.70;0.57;;;;;;;21.58;33.24;100475.91;4213426;28;21025;-65
2022/08/31 11:05:09;;;;;;;1.00;0.70;;;;;;;21.97;33.90;100476.72;4216791;28;20236;-67
2022/08/31 11:08:19;;;;;;;4.53;0.50;;;;;;;22.00;33.90;100470.03;4221062;28;20919;-68
2022/08/31 11:10:50;;;;;;;1.40;0.63;;;;;;;22.27;33.39;100482.38;4226861;28;20625;-66
2022/08/31 11:13:48;;;;;;;3.40;0.80;;;;;;;22.25;32.83;100473.63;4216262;28;20872;-66
2022/08/31 11:16:21;;;;;;;1.93;0.83;;;;;;;22.07;33.16;100474.34;4219212;28;20236;-66
2022/08/31 11:19:27;;;;;;;2.73;0.80;;;;;;;21.78;32.94;100464.97;4211157;28;20236;-69
2022/08/31 11:22:28;;;;;;;2.23;0.70;;;;;;;21.78;32.28;100469.56;4181352;28;20310;-66
2022/08/31 11:25:23;;;;;;;1.10;0.50;;;;;;;22.13;31.78;100464.53;4233955;28;20236;-67
2022/08/31 11:28:08;;;;;;;1.30;0.50;;;;;;;22.57;31.64;100476.28;4210773;28;23107;-66
2022/08/31 11:30:41;;;;;;;1.57;0.60;;;;;;;23.06;31.80;100463.69;4218314;28;21220;-68
2022/08/31 11:33:18;;;;;;;0.97;0.50;;;;;;;23.16;31.00;100465.88;4216718;28;20632;-67
2022/08/31 11:35:48;;;;;;;4.17;0.83;;;;;;;22.60;32.13;100470.41;4227795;28;20282;-68
2022/08/31 11:38:51;;;;;;;1.97;0.77;;;;;;;22.38;32.55;100469.13;4216705;28;20232;-72
2022/08/31 11:41:30;;;;;;;3.43;0.73;;;;;;;22.05;34.39;100460.19;4201879;28;20279;-74
2022/08/31 11:44:03;;;;;;;3.30;0.70;;;;;;;22.02;34.85;100457.91;4235106;28;20232;-78
2022/08/31 11:46:41;;;;;;;1.50;0.90;;;;;;;21.88;36.08;100451.75;4231543;28;20240;-72
2022/08/31 11:49:09;;;;;;;3.00;1.00;;;;;;;22.32;35.41;100463.56;4224085;28;20237;-74
2022/08/31 11:51:44;;;;;;;4.70;0.97;;;;;;;22.83;34.05;100458.03;4227215;28;20746;-74
2022/08/31 11:54:40;;;;;;;1.57;0.77;;;;;;;22.94;33.38;100454.59;4205652;28;20288;-69